Time,TemperatureF,DewpointF,PressureIn,WindDirection,WindDirectionDegrees,WindSpeedMPH,WindSpeedGustMPH,Humidity,HourlyPrecipIn,Conditions,Clouds,dailyrainin,SoftwareType,DateUTC
2013-08-29 00:00:00,77.4,72.2,29.81,East,96,0.0,0.0,84,0.00,,---,0.00,VWS V14.01,2013-08-29 04:00:00,
2013-08-29 00:01:00,77.4,71.8,29.79,East,93,0.0,0.0,83,0.00,,---,0.00,VWS V14.01,2013-08-29 04:01:00,
2013-08-29 00:05:00,77.2,72.0,29.81,East,99,0.0,0.0,84,0.00,,---,0.00,VWS V14.01,2013-08-29 04:05:00,
2013-08-29 00:06:00,77.4,71.8,29.79,East,97,0.0,1.0,83,0.00,,---,0.00,VWS V14.01,2013-08-29 04:06:00,
2013-08-29 00:10:00,77.2,72.0,29.81,East,99,0.0,0.0,84,0.00,,---,0.00,VWS V14.01,2013-08-29 04:10:00,
2013-08-29 00:11:00,77.4,71.8,29.79,East,97,0.0,0.0,83,0.00,,---,0.00,VWS V14.01,2013-08-29 04:11:00,
2013-08-29 00:15:00,77.2,72.0,29.80,East,99,0.0,0.0,84,0.00,,---,0.00,VWS V14.01,2013-08-29 04:15:00,
2013-08-29 00:16:00,77.4,71.8,29.79,East,97,0.0,0.0,83,0.00,,---,0.00,VWS V14.01,2013-08-29 04:16:00,
2013-08-29 00:20:00,77.4,71.8,29.80,East,95,0.0,2.0,83,0.00,,---,0.00,VWS V14.01,2013-08-29 04:20:00,
2013-08-29 00:21:00,77.4,72.2,29.79,ENE,66,0.0,3.0,84,0.00,,---,0.00,VWS V14.01,2013-08-29 04:21:00,
2013-08-29 00:25:00,77.4,71.8,29.80,East,95,0.0,0.0,83,0.00,,---,0.00,VWS V14.01,2013-08-29 04:25:00,
2013-08-29 00:26:00,77.2,72.0,29.79,ENE,75,0.0,2.0,84,0.00,,---,0.00,VWS V14.01,2013-08-29 04:26:00,
2013-08-29 00:30:00,77.4,71.8,29.80,East,95,0.0,0.0,83,0.00,,---,0.00,VWS V14.01,2013-08-29 04:30:00,
2013-08-29 00:31:00,77.2,72.0,29.79,ENE,78,0.0,0.0,84,0.00,,---,0.00,VWS V14.01,2013-08-29 04:31:00,
2013-08-29 00:35:00,77.6,72.0,29.80,East,95,0.0,0.0,83,0.00,,---,0.00,VWS V14.01,2013-08-29 04:35:00,
2013-08-29 00:36:00,77.4,72.2,29.79,ENE,78,0.0,1.0,84,0.00,,---,0.00,VWS V14.01,2013-08-29 04:36:00,
2013-08-29 00:40:00,77.6,72.0,29.80,East,95,0.0,1.0,83,0.00,,---,0.00,VWS V14.01,2013-08-29 04:40:00,
2013-08-29 00:41:00,77.4,72.2,29.79,ENE,78,0.0,0.0,84,0.00,,---,0.00,VWS V14.01,2013-08-29 04:41:00,
2013-08-29 00:45:00,77.4,71.8,29.79,East,95,0.0,0.0,83,0.00,,---,0.00,VWS V14.01,2013-08-29 04:45:00,
2013-08-29 00:46:00,77.4,72.2,29.80,ENE,78,0.0,0.0,84,0.00,,---,0.00,VWS V14.01,2013-08-29 04:46:00,
2013-08-29 00:50:00,77.4,71.8,29.79,East,95,0.0,0.0,83,0.00,,---,0.00,VWS V14.01,2013-08-29 04:50:00,
2013-08-29 00:51:00,77.2,72.0,29.80,East,80,0.0,1.0,84,0.00,,---,0.00,VWS V14.01,2013-08-29 04:51:00,
2013-08-29 00:55:00,77.4,72.2,29.79,East,93,0.0,1.0,84,0.00,,---,0.00,VWS V14.01,2013-08-29 04:55:00,
2013-08-29 00:56:00,77.2,72.0,29.80,East,80,0.0,0.0,84,0.00,,---,0.00,VWS V14.01,2013-08-29 04:56:00,
2013-08-29 01:00:00,77.4,71.8,29.79,East,93,0.0,0.0,83,0.00,,---,0.00,VWS V14.01,2013-08-29 05:00:00,
2013-08-29 01:01:00,77.4,72.2,29.79,East,80,0.0,0.0,84,0.00,,---,0.00,VWS V14.01,2013-08-29 05:01:00,
2013-08-29 01:05:00,77.4,71.8,29.79,East,97,0.0,1.0,83,0.00,,---,0.00,VWS V14.01,2013-08-29 05:05:00,
2013-08-29 01:06:00,77.4,71.8,29.79,East,80,0.0,0.0,83,0.00,,---,0.00,VWS V14.01,2013-08-29 05:06:00,
2013-08-29 01:10:00,77.4,71.8,29.79,East,97,0.0,0.0,83,0.00,,---,0.00,VWS V14.01,2013-08-29 05:10:00,
2013-08-29 01:11:00,77.4,71.8,29.79,ESE,107,0.0,0.0,83,0.00,,---,0.00,VWS V14.01,2013-08-29 05:11:00,
2013-08-29 01:15:00,77.4,71.8,29.79,East,97,0.0,0.0,83,0.00,,---,0.00,VWS V14.01,2013-08-29 05:15:00,
2013-08-29 01:16:00,77.4,72.2,29.79,ESE,112,0.0,1.0,84,0.00,,---,0.00,VWS V14.01,2013-08-29 05:16:00,
2013-08-29 01:20:00,77.4,72.2,29.79,ENE,66,0.0,3.0,84,0.00,,---,0.00,VWS V14.01,2013-08-29 05:20:00,
2013-08-29 01:21:00,77.4,71.8,29.79,ENE,62,0.0,0.0,83,0.00,,---,0.00,VWS V14.01,2013-08-29 05:21:00,
2013-08-29 01:25:00,77.2,72.0,29.79,ENE,75,0.0,2.0,84,0.00,,---,0.00,VWS V14.01,2013-08-29 05:25:00,
2013-08-29 01:26:00,77.4,71.8,29.79,ENE,69,0.0,1.0,83,0.00,,---,0.00,VWS V14.01,2013-08-29 05:26:00,
2013-08-29 01:30:00,77.2,72.0,29.79,ENE,78,0.0,0.0,84,0.00,,---,0.00,VWS V14.01,2013-08-29 05:30:00,
2013-08-29 01:31:00,77.2,71.6,29.78,ENE,69,0.0,0.0,83,0.00,,---,0.00,VWS V14.01,2013-08-29 05:31:00,
2013-08-29 01:35:00,77.4,72.2,29.79,ENE,78,0.0,1.0,84,0.00,,---,0.00,VWS V14.01,2013-08-29 05:35:00,
2013-08-29 01:36:00,77.2,71.6,29.78,ENE,69,0.0,0.0,83,0.00,,---,0.00,VWS V14.01,2013-08-29 05:36:00,
2013-08-29 01:40:00,77.4,72.2,29.79,ENE,78,0.0,0.0,84,0.00,,---,0.00,VWS V14.01,2013-08-29 05:40:00,
2013-08-29 01:41:00,77.2,71.6,29.78,ENE,69,0.0,1.0,83,0.00,,---,0.00,VWS V14.01,2013-08-29 05:41:00,
2013-08-29 01:45:00,77.4,72.2,29.80,ENE,78,0.0,0.0,84,0.00,,---,0.00,VWS V14.01,2013-08-29 05:45:00,
2013-08-29 01:46:00,77.2,71.6,29.78,ENE,69,0.0,2.0,83,0.00,,---,0.00,VWS V14.01,2013-08-29 05:46:00,
2013-08-29 01:50:00,77.2,72.0,29.80,East,80,0.0,1.0,84,0.00,,---,0.00,VWS V14.01,2013-08-29 05:50:00,
2013-08-29 01:51:00,77.2,71.6,29.78,ENE,69,0.0,0.0,83,0.00,,---,0.00,VWS V14.01,2013-08-29 05:51:00,
2013-08-29 01:55:00,77.2,72.0,29.80,East,80,0.0,0.0,84,0.00,,---,0.00,VWS V14.01,2013-08-29 05:55:00,
2013-08-29 01:56:00,77.2,71.6,29.78,ENE,69,0.0,0.0,83,0.00,,---,0.00,VWS V14.01,2013-08-29 05:56:00,
2013-08-29 02:00:00,77.4,72.2,29.79,East,80,0.0,0.0,84,0.00,,---,0.00,VWS V14.01,2013-08-29 06:00:00,
2013-08-29 02:01:00,77.0,71.4,29.78,ENE,69,0.0,0.0,83,0.00,,---,0.00,VWS V14.01,2013-08-29 06:01:00,
2013-08-29 02:05:00,77.4,71.8,29.79,East,80,0.0,0.0,83,0.00,,---,0.00,VWS V14.01,2013-08-29 06:05:00,
2013-08-29 02:06:00,77.0,71.4,29.78,ENE,69,0.0,0.0,83,0.00,,---,0.00,VWS V14.01,2013-08-29 06:06:00,
2013-08-29 02:10:00,77.4,71.8,29.79,ESE,107,0.0,0.0,83,0.00,,---,0.00,VWS V14.01,2013-08-29 06:10:00,
2013-08-29 02:11:00,77.0,71.4,29.78,ENE,69,0.0,0.0,83,0.00,,---,0.00,VWS V14.01,2013-08-29 06:11:00,
2013-08-29 02:15:00,77.4,72.2,29.79,ESE,112,0.0,1.0,84,0.00,,---,0.00,VWS V14.01,2013-08-29 06:15:00,
2013-08-29 02:16:00,76.8,71.2,29.77,East,86,1.0,1.0,83,0.00,,---,0.00,VWS V14.01,2013-08-29 06:16:00,
2013-08-29 02:20:00,77.4,71.8,29.79,ENE,68,0.0,0.0,83,0.00,,---,0.00,VWS V14.01,2013-08-29 06:20:00,
2013-08-29 02:21:00,76.8,71.2,29.77,East,86,0.0,0.0,83,0.00,,---,0.00,VWS V14.01,2013-08-29 06:21:00,
2013-08-29 02:25:00,77.4,71.8,29.79,ENE,69,0.0,1.0,83,0.00,,---,0.00,VWS V14.01,2013-08-29 06:25:00,
2013-08-29 02:26:00,76.7,71.5,29.77,ESE,121,0.0,3.0,84,0.00,,---,0.00,VWS V14.01,2013-08-29 06:26:00,
2013-08-29 02:30:00,77.2,71.6,29.78,ENE,69,0.0,0.0,83,0.00,,---,0.00,VWS V14.01,2013-08-29 06:30:00,
2013-08-29 02:31:00,76.7,71.5,29.77,ESE,121,0.0,0.0,84,0.00,,---,0.00,VWS V14.01,2013-08-29 06:31:00,
2013-08-29 02:35:00,77.2,71.6,29.78,ENE,69,0.0,0.0,83,0.00,,---,0.00,VWS V14.01,2013-08-29 06:35:00,
2013-08-29 02:36:00,76.5,71.3,29.77,ESE,121,0.0,0.0,84,0.00,,---,0.00,VWS V14.01,2013-08-29 06:36:00,
2013-08-29 02:40:00,77.2,71.6,29.78,ENE,69,0.0,1.0,83,0.00,,---,0.00,VWS V14.01,2013-08-29 06:40:00,
2013-08-29 02:41:00,76.5,71.3,29.77,ESE,121,0.0,0.0,84,0.00,,---,0.00,VWS V14.01,2013-08-29 06:41:00,
2013-08-29 02:45:00,77.2,71.6,29.78,ENE,69,0.0,2.0,83,0.00,,---,0.00,VWS V14.01,2013-08-29 06:45:00,
2013-08-29 02:46:00,76.5,71.3,29.77,ESE,120,0.0,0.0,84,0.00,,---,0.00,VWS V14.01,2013-08-29 06:46:00,
2013-08-29 02:50:00,77.2,71.6,29.78,ENE,69,0.0,0.0,83,0.00,,---,0.00,VWS V14.01,2013-08-29 06:50:00,
2013-08-29 02:51:00,76.5,71.3,29.77,ESE,112,0.0,0.0,84,0.00,,---,0.00,VWS V14.01,2013-08-29 06:51:00,
2013-08-29 02:55:00,77.2,71.6,29.78,ENE,69,0.0,0.0,83,0.00,,---,0.00,VWS V14.01,2013-08-29 06:55:00,
2013-08-29 02:56:00,76.5,71.3,29.77,ESE,110,0.0,1.0,84,0.00,,---,0.00,VWS V14.01,2013-08-29 06:56:00,
2013-08-29 03:00:00,77.0,71.4,29.78,ENE,69,0.0,0.0,83,0.00,,---,0.00,VWS V14.01,2013-08-29 07:00:00,
2013-08-29 03:01:00,76.5,71.3,29.77,ESE,110,0.0,0.0,84,0.00,,---,0.00,VWS V14.01,2013-08-29 07:01:00,
2013-08-29 03:05:00,77.0,71.4,29.78,ENE,69,0.0,0.0,83,0.00,,---,0.00,VWS V14.01,2013-08-29 07:05:00,
2013-08-29 03:06:00,76.5,71.3,29.77,ESE,106,0.0,0.0,84,0.00,,---,0.00,VWS V14.01,2013-08-29 07:06:00,
2013-08-29 03:10:00,76.8,71.2,29.78,ENE,69,0.0,0.0,83,0.00,,---,0.00,VWS V14.01,2013-08-29 07:10:00,
2013-08-29 03:11:00,76.5,71.3,29.77,NE,44,0.0,0.0,84,0.00,,---,0.00,VWS V14.01,2013-08-29 07:11:00,
2013-08-29 03:15:00,76.8,71.6,29.77,East,86,0.0,1.0,84,0.00,,---,0.00,VWS V14.01,2013-08-29 07:15:00,
2013-08-29 03:16:00,76.5,71.3,29.77,NE,44,0.0,0.0,84,0.00,,---,0.00,VWS V14.01,2013-08-29 07:16:00,
2013-08-29 03:20:00,76.8,71.2,29.77,East,86,0.0,0.0,83,0.00,,---,0.00,VWS V14.01,2013-08-29 07:20:00,
2013-08-29 03:21:00,76.5,71.3,29.77,NE,44,0.0,0.0,84,0.00,,---,0.00,VWS V14.01,2013-08-29 07:21:00,
2013-08-29 03:25:00,76.7,71.2,29.77,ESE,121,0.0,3.0,83,0.00,,---,0.00,VWS V14.01,2013-08-29 07:25:00,
2013-08-29 03:26:00,76.5,71.3,29.77,NE,47,0.0,1.0,84,0.00,,---,0.00,VWS V14.01,2013-08-29 07:26:00,
2013-08-29 03:30:00,76.7,71.5,29.77,ESE,121,0.0,0.0,84,0.00,,---,0.00,VWS V14.01,2013-08-29 07:30:00,
2013-08-29 03:31:00,76.3,71.5,29.76,NE,49,1.0,1.0,85,0.00,,---,0.00,VWS V14.01,2013-08-29 07:31:00,
2013-08-29 03:35:00,76.5,71.3,29.77,ESE,121,0.0,0.0,84,0.00,,---,0.00,VWS V14.01,2013-08-29 07:35:00,
2013-08-29 03:36:00,76.3,71.5,29.76,ENE,65,0.0,1.0,85,0.00,,---,0.00,VWS V14.01,2013-08-29 07:36:00,
2013-08-29 03:40:00,76.5,71.3,29.77,ESE,121,0.0,0.0,84,0.00,,---,0.00,VWS V14.01,2013-08-29 07:40:00,
2013-08-29 03:41:00,76.3,71.5,29.76,ENE,65,0.0,0.0,85,0.00,,---,0.00,VWS V14.01,2013-08-29 07:41:00,
2013-08-29 03:45:00,76.5,71.3,29.77,ESE,120,0.0,0.0,84,0.00,,---,0.00,VWS V14.01,2013-08-29 07:45:00,
2013-08-29 03:46:00,76.3,71.1,29.76,ENE,59,0.0,0.0,84,0.00,,---,0.00,VWS V14.01,2013-08-29 07:46:00,
2013-08-29 03:50:00,76.5,71.3,29.77,ESE,112,0.0,0.0,84,0.00,,---,0.00,VWS V14.01,2013-08-29 07:50:00,
2013-08-29 03:51:00,76.3,71.5,29.76,ESE,119,0.0,2.0,85,0.00,,---,0.00,VWS V14.01,2013-08-29 07:51:00,
2013-08-29 03:55:00,76.5,71.3,29.77,ESE,110,0.0,1.0,84,0.00,,---,0.00,VWS V14.01,2013-08-29 07:55:00,
2013-08-29 03:56:00,76.3,71.5,29.76,East,80,0.0,0.0,85,0.00,,---,0.00,VWS V14.01,2013-08-29 07:56:00,
2013-08-29 04:00:00,76.5,71.3,29.77,ESE,110,0.0,0.0,84,0.00,,---,0.00,VWS V14.01,2013-08-29 08:00:00,
2013-08-29 04:01:00,76.1,70.9,29.76,NE,51,0.0,0.0,84,0.00,,---,0.00,VWS V14.01,2013-08-29 08:01:00,
2013-08-29 04:05:00,76.5,71.3,29.77,ESE,106,0.0,0.0,84,0.00,,---,0.00,VWS V14.01,2013-08-29 08:05:00,
2013-08-29 04:06:00,76.1,70.9,29.76,NE,51,0.0,0.0,84,0.00,,---,0.00,VWS V14.01,2013-08-29 08:06:00,
2013-08-29 04:10:00,76.5,71.3,29.77,NE,44,0.0,0.0,84,0.00,,---,0.00,VWS V14.01,2013-08-29 08:10:00,
2013-08-29 04:11:00,76.1,70.9,29.76,NE,51,0.0,0.0,84,0.00,,---,0.00,VWS V14.01,2013-08-29 08:11:00,
2013-08-29 04:15:00,76.5,71.3,29.77,NE,44,0.0,0.0,84,0.00,,---,0.00,VWS V14.01,2013-08-29 08:15:00,
2013-08-29 04:16:00,76.0,70.8,29.76,NE,51,0.0,0.0,84,0.00,,---,0.00,VWS V14.01,2013-08-29 08:16:00,
2013-08-29 04:20:00,76.5,71.3,29.77,NE,44,0.0,0.0,84,0.00,,---,0.00,VWS V14.01,2013-08-29 08:20:00,
2013-08-29 04:21:00,76.0,71.2,29.76,NE,51,0.0,0.0,85,0.00,,---,0.00,VWS V14.01,2013-08-29 08:21:00,
2013-08-29 04:26:00,75.8,71.0,29.76,NE,51,0.0,0.0,85,0.00,,---,0.00,VWS V14.01,2013-08-29 08:26:00,
2013-08-29 04:30:00,76.3,71.5,29.76,NE,49,0.0,1.0,85,0.00,,---,0.00,VWS V14.01,2013-08-29 08:30:00,
2013-08-29 04:31:00,75.6,70.8,29.76,NNE,24,0.0,0.0,85,0.00,,---,0.00,VWS V14.01,2013-08-29 08:31:00,
2013-08-29 04:35:00,76.3,71.5,29.76,ENE,65,0.0,1.0,85,0.00,,---,0.00,VWS V14.01,2013-08-29 08:35:00,
2013-08-29 04:36:00,75.6,70.8,29.76,NNE,24,0.0,0.0,85,0.00,,---,0.00,VWS V14.01,2013-08-29 08:36:00,
2013-08-29 04:40:00,76.3,71.5,29.76,ENE,65,0.0,0.0,85,0.00,,---,0.00,VWS V14.01,2013-08-29 08:40:00,
2013-08-29 04:41:00,75.4,70.6,29.76,NNE,24,0.0,0.0,85,0.00,,---,0.00,VWS V14.01,2013-08-29 08:41:00,
2013-08-29 04:45:00,76.3,71.1,29.76,ENE,59,0.0,0.0,84,0.00,,---,0.00,VWS V14.01,2013-08-29 08:45:00,
2013-08-29 04:46:00,75.4,70.6,29.76,NNE,24,0.0,0.0,85,0.00,,---,0.00,VWS V14.01,2013-08-29 08:46:00,
2013-08-29 04:50:00,76.3,71.1,29.76,ESE,119,0.0,2.0,84,0.00,,---,0.00,VWS V14.01,2013-08-29 08:50:00,
2013-08-29 04:51:00,75.3,70.5,29.76,NNE,21,0.0,0.0,85,0.00,,---,0.00,VWS V14.01,2013-08-29 08:51:00,
2013-08-29 04:55:00,76.3,71.1,29.76,East,80,0.0,0.0,84,0.00,,---,0.00,VWS V14.01,2013-08-29 08:55:00,
2013-08-29 04:56:00,75.3,70.5,29.76,NNE,21,0.0,0.0,85,0.00,,---,0.00,VWS V14.01,2013-08-29 08:56:00,
2013-08-29 05:00:00,76.1,70.9,29.76,NE,51,0.0,0.0,84,0.00,,---,0.00,VWS V14.01,2013-08-29 09:00:00,
2013-08-29 05:01:00,75.1,70.6,29.76,NNE,21,0.0,0.0,86,0.00,,---,0.00,VWS V14.01,2013-08-29 09:01:00,
2013-08-29 05:05:00,76.1,70.9,29.76,NE,51,0.0,0.0,84,0.00,,---,0.00,VWS V14.01,2013-08-29 09:05:00,
2013-08-29 05:06:00,75.1,70.3,29.76,NNE,21,0.0,0.0,85,0.00,,---,0.00,VWS V14.01,2013-08-29 09:06:00,
2013-08-29 05:10:00,76.1,70.9,29.76,NE,51,0.0,0.0,84,0.00,,---,0.00,VWS V14.01,2013-08-29 09:10:00,
2013-08-29 05:11:00,75.1,70.6,29.76,NNE,21,0.0,0.0,86,0.00,,---,0.00,VWS V14.01,2013-08-29 09:11:00,
2013-08-29 05:15:00,76.0,70.8,29.76,NE,51,0.0,0.0,84,0.00,,---,0.00,VWS V14.01,2013-08-29 09:15:00,
2013-08-29 05:16:00,74.9,70.4,29.77,NNE,21,0.0,0.0,86,0.00,,---,0.00,VWS V14.01,2013-08-29 09:16:00,
2013-08-29 05:20:00,75.8,71.0,29.76,NE,51,0.0,0.0,85,0.00,,---,0.00,VWS V14.01,2013-08-29 09:20:00,
2013-08-29 05:21:00,74.9,70.4,29.77,NNE,21,0.0,0.0,86,0.00,,---,0.00,VWS V14.01,2013-08-29 09:21:00,
2013-08-29 05:25:00,75.8,71.0,29.76,NE,51,0.0,0.0,85,0.00,,---,0.00,VWS V14.01,2013-08-29 09:25:00,
2013-08-29 05:26:00,74.9,70.1,29.77,NNE,21,0.0,0.0,85,0.00,,---,0.00,VWS V14.01,2013-08-29 09:26:00,
2013-08-29 05:30:00,75.6,70.8,29.76,NNE,24,0.0,0.0,85,0.00,,---,0.00,VWS V14.01,2013-08-29 09:30:00,
2013-08-29 05:31:00,74.9,70.4,29.77,NNE,21,0.0,0.0,86,0.00,,---,0.00,VWS V14.01,2013-08-29 09:31:00,
2013-08-29 05:35:00,75.6,70.8,29.76,NNE,24,0.0,0.0,85,0.00,,---,0.00,VWS V14.01,2013-08-29 09:35:00,
2013-08-29 05:36:00,74.9,70.1,29.77,NNE,21,0.0,0.0,85,0.00,,---,0.00,VWS V14.01,2013-08-29 09:36:00,
2013-08-29 05:40:00,75.4,70.6,29.76,NNE,24,0.0,0.0,85,0.00,,---,0.00,VWS V14.01,2013-08-29 09:40:00,
2013-08-29 05:41:00,74.9,70.1,29.77,NNE,21,0.0,0.0,85,0.00,,---,0.00,VWS V14.01,2013-08-29 09:41:00,
2013-08-29 05:45:00,75.4,70.6,29.76,NNE,24,0.0,0.0,85,0.00,,---,0.00,VWS V14.01,2013-08-29 09:45:00,
2013-08-29 05:46:00,75.1,70.3,29.77,NNE,21,0.0,0.0,85,0.00,,---,0.00,VWS V14.01,2013-08-29 09:46:00,
2013-08-29 05:50:00,75.3,70.5,29.76,NNE,21,0.0,0.0,85,0.00,,---,0.00,VWS V14.01,2013-08-29 09:50:00,
2013-08-29 05:51:00,75.1,70.3,29.77,NNE,21,0.0,0.0,85,0.00,,---,0.00,VWS V14.01,2013-08-29 09:51:00,
2013-08-29 05:55:00,75.3,70.5,29.76,NNE,21,0.0,0.0,85,0.00,,---,0.00,VWS V14.01,2013-08-29 09:55:00,
2013-08-29 05:56:00,75.1,70.3,29.77,NNE,21,0.0,0.0,85,0.00,,---,0.00,VWS V14.01,2013-08-29 09:56:00,
2013-08-29 06:00:00,75.1,70.6,29.76,NNE,21,0.0,0.0,86,0.00,,---,0.00,VWS V14.01,2013-08-29 10:00:00,
2013-08-29 06:01:00,75.1,70.3,29.77,NNE,21,0.0,0.0,85,0.00,,---,0.00,VWS V14.01,2013-08-29 10:01:00,
2013-08-29 06:05:00,75.1,70.3,29.76,NNE,21,0.0,0.0,85,0.00,,---,0.00,VWS V14.01,2013-08-29 10:05:00,
2013-08-29 06:06:00,75.1,70.3,29.77,NNE,21,0.0,0.0,85,0.00,,---,0.00,VWS V14.01,2013-08-29 10:06:00,
2013-08-29 06:10:00,75.1,70.6,29.76,NNE,21,0.0,0.0,86,0.00,,---,0.00,VWS V14.01,2013-08-29 10:10:00,
2013-08-29 06:11:00,75.1,70.3,29.77,NNE,21,0.0,0.0,85,0.00,,---,0.00,VWS V14.01,2013-08-29 10:11:00,
2013-08-29 06:15:00,74.9,70.4,29.77,NNE,21,0.0,0.0,86,0.00,,---,0.00,VWS V14.01,2013-08-29 10:15:00,
2013-08-29 06:16:00,75.1,70.3,29.78,NNE,21,0.0,0.0,85,0.00,,---,0.00,VWS V14.01,2013-08-29 10:16:00,
2013-08-29 06:20:00,74.9,70.4,29.77,NNE,21,0.0,0.0,86,0.00,,---,0.00,VWS V14.01,2013-08-29 10:20:00,
2013-08-29 06:21:00,75.1,70.3,29.78,NNE,21,0.0,0.0,85,0.00,,---,0.00,VWS V14.01,2013-08-29 10:21:00,
2013-08-29 06:25:00,74.9,70.4,29.77,NNE,21,0.0,0.0,86,0.00,,---,0.00,VWS V14.01,2013-08-29 10:25:00,
2013-08-29 06:26:00,75.1,70.3,29.78,NNE,21,0.0,0.0,85,0.00,,---,0.00,VWS V14.01,2013-08-29 10:26:00,
2013-08-29 06:30:00,74.9,70.4,29.77,NNE,21,0.0,0.0,86,0.00,,---,0.00,VWS V14.01,2013-08-29 10:30:00,
2013-08-29 06:31:00,75.1,70.3,29.78,NNE,21,0.0,0.0,85,0.00,,---,0.00,VWS V14.01,2013-08-29 10:31:00,
2013-08-29 06:35:00,74.9,70.1,29.77,NNE,21,0.0,0.0,85,0.00,,---,0.00,VWS V14.01,2013-08-29 10:35:00,
2013-08-29 06:36:00,75.1,70.3,29.78,NNE,21,0.0,0.0,85,0.00,,---,0.00,VWS V14.01,2013-08-29 10:36:00,
2013-08-29 06:40:00,74.9,70.1,29.77,NNE,21,0.0,0.0,85,0.00,,---,0.00,VWS V14.01,2013-08-29 10:40:00,
2013-08-29 06:41:00,75.1,70.3,29.78,NNE,21,0.0,0.0,85,0.00,,---,0.00,VWS V14.01,2013-08-29 10:41:00,
2013-08-29 06:45:00,75.1,70.3,29.77,NNE,21,0.0,0.0,85,0.00,,---,0.00,VWS V14.01,2013-08-29 10:45:00,
2013-08-29 06:46:00,75.1,70.3,29.79,NNE,21,0.0,0.0,85,0.00,,---,0.00,VWS V14.01,2013-08-29 10:46:00,
2013-08-29 06:50:00,75.1,70.3,29.77,NNE,21,0.0,0.0,85,0.00,,---,0.00,VWS V14.01,2013-08-29 10:50:00,
2013-08-29 06:51:00,75.1,70.3,29.79,NNE,21,0.0,0.0,85,0.00,,---,0.00,VWS V14.01,2013-08-29 10:51:00,
2013-08-29 06:55:00,75.1,70.3,29.77,NNE,21,0.0,0.0,85,0.00,,---,0.00,VWS V14.01,2013-08-29 10:55:00,
2013-08-29 06:56:00,74.9,70.1,29.79,NNE,21,0.0,0.0,85,0.00,,---,0.00,VWS V14.01,2013-08-29 10:56:00,
2013-08-29 07:00:00,75.1,70.3,29.77,NNE,21,0.0,0.0,85,0.00,,---,0.00,VWS V14.01,2013-08-29 11:00:00,
2013-08-29 07:01:00,74.9,70.1,29.80,NNE,21,0.0,0.0,85,0.00,,---,0.00,VWS V14.01,2013-08-29 11:01:00,
2013-08-29 07:05:00,75.1,70.3,29.77,NNE,21,0.0,0.0,85,0.00,,---,0.00,VWS V14.01,2013-08-29 11:05:00,
2013-08-29 07:06:00,74.7,70.2,29.80,NNE,21,0.0,0.0,86,0.00,,---,0.00,VWS V14.01,2013-08-29 11:06:00,
2013-08-29 07:10:00,75.1,70.3,29.77,NNE,21,0.0,0.0,85,0.00,,---,0.00,VWS V14.01,2013-08-29 11:10:00,
2013-08-29 07:11:00,74.7,70.2,29.80,NNE,21,0.0,0.0,86,0.00,,---,0.00,VWS V14.01,2013-08-29 11:11:00,
2013-08-29 07:15:00,75.1,70.3,29.78,NNE,21,0.0,0.0,85,0.00,,---,0.00,VWS V14.01,2013-08-29 11:15:00,
2013-08-29 07:16:00,74.6,70.1,29.81,NNE,21,0.0,0.0,86,0.00,,---,0.00,VWS V14.01,2013-08-29 11:16:00,
2013-08-29 07:20:00,75.1,70.3,29.78,NNE,21,0.0,0.0,85,0.00,,---,0.00,VWS V14.01,2013-08-29 11:20:00,
2013-08-29 07:21:00,74.6,70.5,29.81,NNE,21,0.0,0.0,87,0.00,,---,0.00,VWS V14.01,2013-08-29 11:21:00,
2013-08-29 07:25:00,75.1,70.3,29.78,NNE,21,0.0,0.0,85,0.00,,---,0.00,VWS V14.01,2013-08-29 11:25:00,
2013-08-29 07:26:00,74.6,70.5,29.81,NNE,21,0.0,0.0,87,0.00,,---,0.00,VWS V14.01,2013-08-29 11:26:00,
2013-08-29 07:30:00,75.1,70.3,29.78,NNE,21,0.0,0.0,85,0.00,,---,0.00,VWS V14.01,2013-08-29 11:30:00,
2013-08-29 07:31:00,74.6,70.5,29.81,NNE,21,0.0,0.0,87,0.00,,---,0.00,VWS V14.01,2013-08-29 11:31:00,
2013-08-29 07:35:00,75.1,70.3,29.78,NNE,21,0.0,0.0,85,0.00,,---,0.00,VWS V14.01,2013-08-29 11:35:00,
2013-08-29 07:36:00,74.6,70.5,29.81,NNE,21,0.0,0.0,87,0.00,,---,0.00,VWS V14.01,2013-08-29 11:36:00,
2013-08-29 07:40:00,75.1,70.3,29.78,NNE,21,0.0,0.0,85,0.00,,---,0.00,VWS V14.01,2013-08-29 11:40:00,
2013-08-29 07:41:00,74.6,70.5,29.81,NNE,21,0.0,0.0,87,0.00,,---,0.00,VWS V14.01,2013-08-29 11:41:00,
2013-08-29 07:45:00,75.1,70.3,29.79,NNE,21,0.0,0.0,85,0.00,,---,0.00,VWS V14.01,2013-08-29 11:45:00,
2013-08-29 07:46:00,74.6,70.5,29.82,NNE,21,0.0,0.0,87,0.00,,---,0.00,VWS V14.01,2013-08-29 11:46:00,
2013-08-29 07:50:00,75.1,70.3,29.79,NNE,21,0.0,0.0,85,0.00,,---,0.00,VWS V14.01,2013-08-29 11:50:00,
2013-08-29 07:51:00,74.6,70.8,29.82,NNE,21,0.0,1.0,88,0.00,,---,0.00,VWS V14.01,2013-08-29 11:51:00,
2013-08-29 07:55:00,74.9,70.1,29.79,NNE,21,0.0,0.0,85,0.00,,---,0.00,VWS V14.01,2013-08-29 11:55:00,
2013-08-29 07:56:00,74.7,70.6,29.82,NNE,17,0.0,0.0,87,0.00,,---,0.00,VWS V14.01,2013-08-29 11:56:00,
2013-08-29 08:00:00,74.7,70.6,29.83,NNE,17,0.0,0.0,87,0.00,,---,0.00,VWS V14.01,2013-08-29 12:00:00,
2013-08-29 08:05:00,74.9,70.8,29.83,NNE,18,0.0,0.0,87,0.00,,---,0.00,VWS V14.01,2013-08-29 12:05:00,
2013-08-29 08:10:00,74.9,70.8,29.83,NNE,18,0.0,0.0,87,0.00,,---,0.00,VWS V14.01,2013-08-29 12:10:00,
2013-08-29 08:15:00,75.1,71.0,29.83,NNE,17,0.0,0.0,87,0.00,,---,0.00,VWS V14.01,2013-08-29 12:15:00,
2013-08-29 08:20:00,75.3,70.8,29.83,WNW,282,0.0,0.0,86,0.00,,---,0.00,VWS V14.01,2013-08-29 12:20:00,
2013-08-29 08:25:00,75.3,70.5,29.83,North,359,0.0,5.0,85,0.00,,---,0.00,VWS V14.01,2013-08-29 12:25:00,
2013-08-29 08:30:00,75.4,70.6,29.83,North,352,0.0,2.0,85,0.00,,---,0.00,VWS V14.01,2013-08-29 12:30:00,
2013-08-29 08:35:00,75.6,70.8,29.83,NNE,32,0.0,8.0,85,0.00,,---,0.00,VWS V14.01,2013-08-29 12:35:00,
2013-08-29 08:40:00,75.8,70.6,29.83,NW,318,0.0,2.0,84,0.00,,---,0.00,VWS V14.01,2013-08-29 12:40:00,
2013-08-29 08:45:00,76.0,70.8,29.84,SW,227,0.0,0.0,84,0.00,,---,0.00,VWS V14.01,2013-08-29 12:45:00,
2013-08-29 08:50:00,76.0,70.8,29.84,North,0,0.0,0.0,84,0.00,,---,0.00,VWS V14.01,2013-08-29 12:50:00,
2013-08-29 08:55:00,75.8,70.6,29.84,North,353,0.0,0.0,84,0.00,,---,0.00,VWS V14.01,2013-08-29 12:55:00,
2013-08-29 09:00:00,76.0,70.8,29.84,NNW,337,0.0,2.0,84,0.00,,---,0.00,VWS V14.01,2013-08-29 13:00:00,
2013-08-29 09:05:00,76.1,70.9,29.84,North,350,0.0,0.0,84,0.00,,---,0.00,VWS V14.01,2013-08-29 13:05:00,
2013-08-29 09:10:00,76.1,70.9,29.84,NE,34,0.0,2.0,84,0.00,,---,0.00,VWS V14.01,2013-08-29 13:10:00,
2013-08-29 09:15:00,76.3,70.8,29.85,ENE,58,0.0,2.0,83,0.00,,---,0.00,VWS V14.01,2013-08-29 13:15:00,
2013-08-29 09:20:00,76.3,70.4,29.85,NNW,347,0.0,1.0,82,0.00,,---,0.00,VWS V14.01,2013-08-29 13:20:00,
2013-08-29 09:25:00,76.5,71.0,29.85,NNE,23,0.0,3.0,83,0.00,,---,0.00,VWS V14.01,2013-08-29 13:25:00,
2013-08-29 09:30:00,76.7,71.2,29.84,North,359,0.0,2.0,83,0.00,,---,0.00,VWS V14.01,2013-08-29 13:30:00,
2013-08-29 09:35:00,77.0,71.1,29.84,North,357,0.0,3.0,82,0.00,,---,0.00,VWS V14.01,2013-08-29 13:35:00,
2013-08-29 09:40:00,77.2,71.3,29.84,North,0,0.0,0.0,82,0.00,,---,0.00,VWS V14.01,2013-08-29 13:40:00,
2013-08-29 09:45:00,77.4,71.5,29.84,North,0,0.0,0.0,82,0.00,,---,0.00,VWS V14.01,2013-08-29 13:45:00,
2013-08-29 09:50:00,77.9,71.6,29.84,East,83,0.0,4.0,81,0.00,,---,0.00,VWS V14.01,2013-08-29 13:50:00,
2013-08-29 09:55:00,78.1,71.1,29.84,NE,44,0.0,0.0,79,0.00,,---,0.00,VWS V14.01,2013-08-29 13:55:00,
2013-08-29 10:00:00,78.3,71.3,29.85,North,10,0.0,1.0,79,0.00,,---,0.00,VWS V14.01,2013-08-29 14:00:00,
2013-08-29 10:05:00,78.5,71.1,29.85,NNW,330,0.0,1.0,78,0.00,,---,0.00,VWS V14.01,2013-08-29 14:05:00,
2013-08-29 10:10:00,78.8,71.4,29.85,NE,37,0.0,5.0,78,0.00,,---,0.00,VWS V14.01,2013-08-29 14:10:00,
2013-08-29 10:15:00,79.8,72.3,29.84,North,353,0.0,1.0,78,0.00,,---,0.00,VWS V14.01,2013-08-29 14:15:00,
2013-08-29 10:20:00,79.9,70.9,29.84,North,356,0.0,4.0,74,0.00,,---,0.00,VWS V14.01,2013-08-29 14:20:00,
2013-08-29 10:25:00,79.9,71.3,29.84,NNW,328,0.0,2.0,75,0.00,,---,0.00,VWS V14.01,2013-08-29 14:25:00,
2013-08-29 10:30:00,79.8,71.2,29.85,North,0,0.0,2.0,75,0.00,,---,0.00,VWS V14.01,2013-08-29 14:30:00,
2013-08-29 10:35:00,79.8,71.6,29.85,NNW,330,0.0,2.0,76,0.00,,---,0.00,VWS V14.01,2013-08-29 14:35:00,
2013-08-29 10:40:00,79.6,71.4,29.85,NNW,330,0.0,0.0,76,0.00,,---,0.00,VWS V14.01,2013-08-29 14:40:00,
2013-08-29 10:45:00,79.8,71.2,29.85,ENE,69,0.0,3.0,75,0.00,,---,0.00,VWS V14.01,2013-08-29 14:45:00,
2013-08-29 10:50:00,79.8,71.9,29.85,ENE,68,0.0,0.0,77,0.00,,---,0.00,VWS V14.01,2013-08-29 14:50:00,
2013-08-29 10:55:00,79.6,71.8,29.85,North,356,0.0,5.0,77,0.00,,---,0.00,VWS V14.01,2013-08-29 14:55:00,
2013-08-29 11:00:00,79.6,71.8,29.86,ESE,119,0.0,5.0,77,0.00,,---,0.00,VWS V14.01,2013-08-29 15:00:00,
2013-08-29 11:05:00,79.2,71.8,29.86,NW,325,0.0,5.0,78,0.00,,---,0.00,VWS V14.01,2013-08-29 15:05:00,
2013-08-29 11:10:00,79.0,71.6,29.86,NNE,14,0.0,2.0,78,0.00,,---,0.00,VWS V14.01,2013-08-29 15:10:00,
2013-08-29 11:15:00,79.0,71.6,29.86,North,3,0.0,0.0,78,0.00,,---,0.00,VWS V14.01,2013-08-29 15:15:00,
2013-08-29 11:20:00,79.0,71.9,29.86,North,3,0.0,0.0,79,0.00,,---,0.00,VWS V14.01,2013-08-29 15:20:00,
2013-08-29 11:25:00,78.8,71.7,29.86,WNW,298,0.0,2.0,79,0.00,,---,0.00,VWS V14.01,2013-08-29 15:25:00,
2013-08-29 11:30:00,78.6,71.9,29.86,NNE,31,0.0,1.0,80,0.00,,---,0.00,VWS V14.01,2013-08-29 15:30:00,
2013-08-29 11:35:00,78.3,71.6,29.86,North,10,0.0,0.0,80,0.00,,---,0.00,VWS V14.01,2013-08-29 15:35:00,
2013-08-29 11:40:00,78.1,71.8,29.86,North,11,0.0,0.0,81,0.00,,---,0.00,VWS V14.01,2013-08-29 15:40:00,
2013-08-29 11:45:00,78.3,72.0,29.86,North,10,0.0,0.0,81,0.00,,---,0.00,VWS V14.01,2013-08-29 15:45:00,
2013-08-29 11:50:00,78.6,72.3,29.86,North,0,0.0,4.0,81,0.00,,---,0.00,VWS V14.01,2013-08-29 15:50:00,
2013-08-29 11:55:00,78.8,71.4,29.86,North,0,0.0,0.0,78,0.00,,---,0.00,VWS V14.01,2013-08-29 15:55:00,
2013-08-29 12:00:00,79.2,71.4,29.87,NE,38,0.0,3.0,77,0.00,,---,0.00,VWS V14.01,2013-08-29 16:00:00,
2013-08-29 12:05:00,79.4,71.6,29.87,NE,48,0.0,3.0,77,0.00,,---,0.00,VWS V14.01,2013-08-29 16:05:00,
2013-08-29 12:10:00,79.6,71.4,29.87,ENE,58,0.0,7.0,76,0.00,,---,0.00,VWS V14.01,2013-08-29 16:10:00,
2013-08-29 12:15:00,79.2,71.4,29.87,North,0,0.0,0.0,77,0.00,,---,0.00,VWS V14.01,2013-08-29 16:15:00,
2013-08-29 12:20:00,79.2,71.8,29.87,NW,323,0.0,0.0,78,0.00,,---,0.00,VWS V14.01,2013-08-29 16:20:00,
2013-08-29 12:25:00,79.4,71.9,29.87,NW,326,0.0,0.0,78,0.00,,---,0.00,VWS V14.01,2013-08-29 16:25:00,
2013-08-29 12:30:00,79.4,71.6,29.86,North,0,0.0,6.0,77,0.00,,---,0.00,VWS V14.01,2013-08-29 16:30:00,
2013-08-29 12:35:00,79.4,71.6,29.86,ENE,61,0.0,1.0,77,0.00,,---,0.00,VWS V14.01,2013-08-29 16:35:00,
2013-08-29 12:40:00,79.9,71.7,29.86,ENE,58,0.0,3.0,76,0.00,,---,0.00,VWS V14.01,2013-08-29 16:40:00,
2013-08-29 12:45:00,80.3,70.9,29.86,NNW,343,2.0,3.0,73,0.00,,---,0.00,VWS V14.01,2013-08-29 16:45:00,
2013-08-29 12:50:00,80.5,71.1,29.86,North,0,1.0,1.0,73,0.00,,---,0.00,VWS V14.01,2013-08-29 16:50:00,
2013-08-29 12:55:00,80.3,70.5,29.86,North,359,0.0,2.0,72,0.00,,---,0.00,VWS V14.01,2013-08-29 16:55:00,
2013-08-29 13:00:00,80.3,70.5,29.86,ENE,68,0.0,1.0,72,0.00,,---,0.00,VWS V14.01,2013-08-29 17:00:00,
2013-08-29 13:05:00,80.5,70.2,29.86,NW,304,0.0,3.0,71,0.00,,---,0.00,VWS V14.01,2013-08-29 17:05:00,
2013-08-29 13:10:00,81.1,71.2,29.86,North,0,0.0,0.0,72,0.00,,---,0.00,VWS V14.01,2013-08-29 17:10:00,
2013-08-29 13:15:00,81.4,69.8,29.86,North,0,0.0,3.0,68,0.00,,---,0.00,VWS V14.01,2013-08-29 17:15:00,
2013-08-29 13:20:00,81.4,70.7,29.86,North,8,0.0,0.0,70,0.00,,---,0.00,VWS V14.01,2013-08-29 17:20:00,
2013-08-29 13:25:00,82.0,71.3,29.86,North,356,0.0,0.0,70,0.00,,---,0.00,VWS V14.01,2013-08-29 17:25:00,
2013-08-29 13:30:00,83.2,72.0,29.86,North,356,0.0,0.0,69,0.00,,---,0.00,VWS V14.01,2013-08-29 17:30:00,
2013-08-29 13:35:00,84.0,71.9,29.85,NNE,21,0.0,0.0,67,0.00,,---,0.00,VWS V14.01,2013-08-29 17:35:00,
2013-08-29 13:40:00,83.8,71.7,29.85,North,1,0.0,3.0,67,0.00,,---,0.00,VWS V14.01,2013-08-29 17:40:00,
2013-08-29 13:45:00,83.0,70.9,29.85,North,357,0.0,5.0,67,0.00,,---,0.00,VWS V14.01,2013-08-29 17:45:00,
2013-08-29 13:50:00,83.6,71.9,29.86,East,99,0.0,0.0,68,0.00,,---,0.00,VWS V14.01,2013-08-29 17:50:00,
2013-08-29 13:55:00,84.7,71.6,29.86,NNE,14,0.0,0.0,65,0.00,,---,0.00,VWS V14.01,2013-08-29 17:55:00,
2013-08-29 14:00:00,84.5,71.0,29.86,North,10,0.0,2.0,64,0.00,,---,0.00,VWS V14.01,2013-08-29 18:00:00,
2013-08-29 14:05:00,84.7,70.7,29.86,ENE,75,0.0,3.0,63,0.00,,---,0.00,VWS V14.01,2013-08-29 18:05:00,
2013-08-29 14:10:00,85.3,70.3,29.86,NNW,343,0.0,7.0,61,0.00,,---,0.00,VWS V14.01,2013-08-29 18:10:00,
2013-08-29 14:15:00,85.5,69.6,29.86,NNW,335,0.0,5.0,59,0.00,,---,0.00,VWS V14.01,2013-08-29 18:15:00,
2013-08-29 14:20:00,84.5,70.1,29.85,NNW,328,0.0,1.0,62,0.00,,---,0.00,VWS V14.01,2013-08-29 18:20:00,
2013-08-29 14:25:00,83.4,69.9,29.85,NNW,335,0.0,5.0,64,0.00,,---,0.00,VWS V14.01,2013-08-29 18:25:00,
2013-08-29 14:30:00,83.6,70.1,29.85,WNW,298,0.0,5.0,64,0.00,,---,0.00,VWS V14.01,2013-08-29 18:30:00,
2013-08-29 14:35:00,84.3,70.8,29.85,WNW,296,0.0,3.0,64,0.00,,---,0.00,VWS V14.01,2013-08-29 18:35:00,
2013-08-29 14:40:00,84.5,70.1,29.85,NNE,25,0.0,5.0,62,0.00,,---,0.00,VWS V14.01,2013-08-29 18:40:00,
2013-08-29 14:45:00,85.5,71.0,29.85,ENE,61,0.0,0.0,62,0.00,,---,0.00,VWS V14.01,2013-08-29 18:45:00,
2013-08-29 14:50:00,86.3,72.2,29.85,ENE,62,0.0,0.0,63,0.00,,---,0.00,VWS V14.01,2013-08-29 18:50:00,
2013-08-29 14:55:00,86.3,70.3,29.85,NNW,340,0.0,0.0,59,0.00,,---,0.00,VWS V14.01,2013-08-29 18:55:00,
2013-08-29 15:00:00,85.7,69.7,29.85,NE,44,0.0,3.0,59,0.00,,---,0.00,VWS V14.01,2013-08-29 19:00:00,
2013-08-29 15:05:00,85.3,70.8,29.85,NW,319,0.0,3.0,62,0.00,,---,0.00,VWS V14.01,2013-08-29 19:05:00,
2013-08-29 15:10:00,84.9,71.4,29.85,NW,319,0.0,0.0,64,0.00,,---,0.00,VWS V14.01,2013-08-29 19:10:00,
2013-08-29 15:15:00,85.3,69.8,29.85,ENE,65,0.0,2.0,60,0.00,,---,0.00,VWS V14.01,2013-08-29 19:15:00,
2013-08-29 15:20:00,85.5,71.0,29.84,NNW,343,3.0,5.0,62,0.00,,---,0.00,VWS V14.01,2013-08-29 19:20:00,
2013-08-29 15:25:00,85.9,71.4,29.84,NNW,336,0.0,2.0,62,0.00,,---,0.00,VWS V14.01,2013-08-29 19:25:00,
2013-08-29 15:30:00,85.9,70.9,29.84,North,349,0.0,6.0,61,0.00,,---,0.00,VWS V14.01,2013-08-29 19:30:00,
2013-08-29 15:35:00,86.3,70.3,29.84,NNE,17,0.0,0.0,59,0.00,,---,0.00,VWS V14.01,2013-08-29 19:35:00,
2013-08-29 15:40:00,86.1,70.1,29.84,NW,318,0.0,7.0,59,0.00,,---,0.00,VWS V14.01,2013-08-29 19:40:00,
2013-08-29 15:45:00,85.9,69.9,29.84,NNW,346,0.0,4.0,59,0.00,,---,0.00,VWS V14.01,2013-08-29 19:45:00,
2013-08-29 15:50:00,84.9,70.0,29.84,North,8,0.0,5.0,61,0.00,,---,0.00,VWS V14.01,2013-08-29 19:50:00,
2013-08-29 15:55:00,84.3,69.9,29.84,NNW,330,0.0,3.0,62,0.00,,---,0.00,VWS V14.01,2013-08-29 19:55:00,
2013-08-29 16:00:00,84.3,70.3,29.84,North,356,0.0,3.0,63,0.00,,---,0.00,VWS V14.01,2013-08-29 20:00:00,
2013-08-29 16:05:00,84.1,69.7,29.84,North,0,0.0,2.0,62,0.00,,---,0.00,VWS V14.01,2013-08-29 20:05:00,
2013-08-29 16:10:00,84.1,69.7,29.84,North,349,0.0,3.0,62,0.00,,---,0.00,VWS V14.01,2013-08-29 20:10:00,
2013-08-29 16:15:00,84.0,70.1,29.84,East,79,0.0,5.0,63,0.00,,---,0.00,VWS V14.01,2013-08-29 20:15:00,
2013-08-29 16:20:00,83.6,69.7,29.84,North,349,0.0,7.0,63,0.00,,---,0.00,VWS V14.01,2013-08-29 20:20:00,
2013-08-29 16:25:00,83.4,69.9,29.84,North,1,0.0,2.0,64,0.00,,---,0.00,VWS V14.01,2013-08-29 20:25:00,
2013-08-29 16:30:00,83.6,70.6,29.84,East,89,0.0,4.0,65,0.00,,---,0.00,VWS V14.01,2013-08-29 20:30:00,
2013-08-29 16:35:00,83.4,69.9,29.84,WNW,284,0.0,2.0,64,0.00,,---,0.00,VWS V14.01,2013-08-29 20:35:00,
2013-08-29 16:40:00,83.0,70.0,29.84,North,357,0.0,3.0,65,0.00,,---,0.00,VWS V14.01,2013-08-29 20:40:00,
2013-08-29 16:45:00,83.2,71.1,29.84,NE,38,0.0,0.0,67,0.00,,---,0.00,VWS V14.01,2013-08-29 20:45:00,
2013-08-29 16:50:00,83.0,70.5,29.85,NE,41,0.0,0.0,66,0.00,,---,0.00,VWS V14.01,2013-08-29 20:50:00,
2013-08-29 16:55:00,82.8,70.7,29.85,North,0,0.0,3.0,67,0.00,,---,0.00,VWS V14.01,2013-08-29 20:55:00,
2013-08-29 17:00:00,82.6,70.1,29.85,West,270,0.0,6.0,66,0.00,,---,0.00,VWS V14.01,2013-08-29 21:00:00,
2013-08-29 17:05:00,82.6,70.1,29.85,NNW,332,0.0,3.0,66,0.00,,---,0.00,VWS V14.01,2013-08-29 21:05:00,
2013-08-29 17:10:00,82.6,69.7,29.85,ENE,76,0.0,1.0,65,0.00,,---,0.00,VWS V14.01,2013-08-29 21:10:00,
2013-08-29 17:15:00,82.4,69.0,29.85,North,4,0.0,2.0,64,0.00,,---,0.00,VWS V14.01,2013-08-29 21:15:00,
2013-08-29 17:20:00,82.6,69.7,29.85,NW,306,0.0,2.0,65,0.00,,---,0.00,VWS V14.01,2013-08-29 21:20:00,
2013-08-29 17:25:00,82.4,70.3,29.85,NW,309,0.0,0.0,67,0.00,,---,0.00,VWS V14.01,2013-08-29 21:25:00,
2013-08-29 17:30:00,82.4,70.3,29.85,NE,49,0.0,6.0,67,0.00,,---,0.00,VWS V14.01,2013-08-29 21:30:00,
2013-08-29 17:35:00,82.6,70.5,29.85,NNE,30,0.0,5.0,67,0.00,,---,0.00,VWS V14.01,2013-08-29 21:35:00,
2013-08-29 17:40:00,82.4,70.3,29.85,North,0,0.0,0.0,67,0.00,,---,0.00,VWS V14.01,2013-08-29 21:40:00,
2013-08-29 17:45:00,82.4,70.8,29.85,North,0,0.0,0.0,68,0.00,,---,0.00,VWS V14.01,2013-08-29 21:45:00,
2013-08-29 17:50:00,82.4,70.8,29.85,East,100,0.0,1.0,68,0.00,,---,0.00,VWS V14.01,2013-08-29 21:50:00,
2013-08-29 17:55:00,82.2,70.6,29.85,NNE,17,0.0,1.0,68,0.00,,---,0.00,VWS V14.01,2013-08-29 21:55:00,
2013-08-29 18:00:00,82.0,70.4,29.85,NNW,329,0.0,1.0,68,0.00,,---,0.00,VWS V14.01,2013-08-29 22:00:00,
2013-08-29 18:05:00,82.0,70.4,29.85,NNE,30,1.0,1.0,68,0.00,,---,0.00,VWS V14.01,2013-08-29 22:05:00,
2013-08-29 18:10:00,81.8,69.3,29.85,ESE,113,2.0,6.0,66,0.00,,---,0.00,VWS V14.01,2013-08-29 22:10:00,
2013-08-29 18:15:00,81.8,69.8,29.85,ESE,106,0.0,0.0,67,0.00,,---,0.00,VWS V14.01,2013-08-29 22:15:00,
2013-08-29 18:20:00,81.6,69.6,29.85,ESE,103,0.0,0.0,67,0.00,,---,0.00,VWS V14.01,2013-08-29 22:20:00,
2013-08-29 18:25:00,81.6,69.6,29.85,NNW,333,0.0,1.0,67,0.00,,---,0.00,VWS V14.01,2013-08-29 22:25:00,
2013-08-29 18:30:00,81.4,69.8,29.85,ENE,59,0.0,3.0,68,0.00,,---,0.00,VWS V14.01,2013-08-29 22:30:00,
2013-08-29 18:35:00,81.6,69.6,29.85,North,354,0.0,0.0,67,0.00,,---,0.00,VWS V14.01,2013-08-29 22:35:00,
2013-08-29 18:40:00,81.6,70.0,29.85,SE,131,0.0,3.0,68,0.00,,---,0.00,VWS V14.01,2013-08-29 22:40:00,
2013-08-29 18:45:00,81.8,70.2,29.85,NNE,21,0.0,0.0,68,0.00,,---,0.00,VWS V14.01,2013-08-29 22:45:00,
2013-08-29 18:50:00,81.8,70.2,29.86,NNE,21,0.0,2.0,68,0.00,,---,0.00,VWS V14.01,2013-08-29 22:50:00,
2013-08-29 18:55:00,81.8,70.6,29.86,NNW,337,0.0,0.0,69,0.00,,---,0.00,VWS V14.01,2013-08-29 22:55:00,
2013-08-29 19:00:00,81.6,70.9,29.86,NNW,335,0.0,6.0,70,0.00,,---,0.00,VWS V14.01,2013-08-29 23:00:00,
2013-08-29 19:05:00,81.1,70.8,29.86,WNW,287,0.0,2.0,71,0.00,,---,0.00,VWS V14.01,2013-08-29 23:05:00,
2013-08-29 19:10:00,80.7,70.8,29.86,NW,320,0.0,1.0,72,0.00,,---,0.00,VWS V14.01,2013-08-29 23:10:00,
2013-08-29 19:15:00,80.3,70.9,29.86,SSW,192,0.0,2.0,73,0.00,,---,0.00,VWS V14.01,2013-08-29 23:15:00,
2013-08-29 19:20:00,80.1,70.7,29.86,NNE,18,0.0,3.0,73,0.00,,---,0.00,VWS V14.01,2013-08-29 23:20:00,
2013-08-29 19:25:00,79.9,70.9,29.86,NNE,18,0.0,0.0,74,0.00,,---,0.00,VWS V14.01,2013-08-29 23:25:00,
2013-08-29 19:30:00,79.6,70.6,29.86,NNE,13,0.0,0.0,74,0.00,,---,0.00,VWS V14.01,2013-08-29 23:30:00,
2013-08-29 19:35:00,79.4,70.8,29.87,SE,133,0.0,0.0,75,0.00,,---,0.00,VWS V14.01,2013-08-29 23:35:00,
2013-08-29 19:40:00,79.2,71.0,29.87,ESE,102,0.0,0.0,76,0.00,,---,0.00,VWS V14.01,2013-08-29 23:40:00,
2013-08-29 19:45:00,79.0,70.8,29.87,NNE,18,0.0,0.0,76,0.00,,---,0.00,VWS V14.01,2013-08-29 23:45:00,
2013-08-29 19:50:00,78.8,71.0,29.88,NNE,18,0.0,0.0,77,0.00,,---,0.00,VWS V14.01,2013-08-29 23:50:00,
2013-08-29 19:55:00,78.6,70.8,29.88,NNE,18,0.0,0.0,77,0.00,,---,0.00,VWS V14.01,2013-08-29 23:55:00,
2013-08-29 20:00:00,78.5,71.1,29.88,NNE,18,0.0,0.0,78,0.00,,---,0.00,VWS V14.01,2013-08-30 00:00:00,
2013-08-29 20:05:00,78.1,70.7,29.89,NNE,20,0.0,0.0,78,0.00,,---,0.00,VWS V14.01,2013-08-30 00:05:00,
2013-08-29 20:10:00,78.1,70.7,29.89,NNE,20,0.0,0.0,78,0.00,,---,0.00,VWS V14.01,2013-08-30 00:10:00,
2013-08-29 20:15:00,77.9,70.9,29.89,NNE,24,0.0,0.0,79,0.00,,---,0.00,VWS V14.01,2013-08-30 00:15:00,
2013-08-29 20:20:00,77.7,70.3,29.89,NNE,14,0.0,0.0,78,0.00,,---,0.00,VWS V14.01,2013-08-30 00:20:00,
2013-08-29 20:25:00,77.6,70.6,29.89,ENE,71,0.0,0.0,79,0.00,,---,0.00,VWS V14.01,2013-08-30 00:25:00,
2013-08-29 20:30:00,77.4,70.4,29.89,South,179,0.0,0.0,79,0.00,,---,0.00,VWS V14.01,2013-08-30 00:30:00,
2013-08-29 20:35:00,77.4,70.4,29.90,South,181,0.0,0.0,79,0.00,,---,0.00,VWS V14.01,2013-08-30 00:35:00,
2013-08-29 20:40:00,77.2,70.2,29.90,South,181,0.0,0.0,79,0.00,,---,0.00,VWS V14.01,2013-08-30 00:40:00,
2013-08-29 20:45:00,77.2,70.6,29.90,South,181,0.0,0.0,80,0.00,,---,0.00,VWS V14.01,2013-08-30 00:45:00,
2013-08-29 20:50:00,77.0,70.4,29.90,South,178,0.0,0.0,80,0.00,,---,0.00,VWS V14.01,2013-08-30 00:50:00,
2013-08-29 20:55:00,76.8,70.5,29.90,South,179,0.0,0.0,81,0.00,,---,0.00,VWS V14.01,2013-08-30 00:55:00,
2013-08-29 21:00:00,76.7,70.1,29.90,North,6,0.0,0.0,80,0.00,,---,0.00,VWS V14.01,2013-08-30 01:00:00,
2013-08-29 21:05:00,76.5,69.9,29.91,North,6,0.0,0.0,80,0.00,,---,0.00,VWS V14.01,2013-08-30 01:05:00,
2013-08-29 21:10:00,76.5,70.2,29.91,North,6,0.0,0.0,81,0.00,,---,0.00,VWS V14.01,2013-08-30 01:10:00,
2013-08-29 21:15:00,76.3,70.1,29.91,North,6,0.0,0.0,81,0.00,,---,0.00,VWS V14.01,2013-08-30 01:15:00,
2013-08-29 21:20:00,76.0,69.8,29.91,West,260,0.0,0.0,81,0.00,,---,0.00,VWS V14.01,2013-08-30 01:20:00,
2013-08-29 21:25:00,75.8,69.6,29.91,WSW,250,0.0,0.0,81,0.00,,---,0.00,VWS V14.01,2013-08-30 01:25:00,
2013-08-29 21:30:00,75.6,69.4,29.91,North,0,0.0,0.0,81,0.00,,---,0.00,VWS V14.01,2013-08-30 01:30:00,
2013-08-29 21:35:00,75.6,69.7,29.92,North,0,0.0,0.0,82,0.00,,---,0.00,VWS V14.01,2013-08-30 01:35:00,
2013-08-29 21:40:00,75.4,69.5,29.92,North,0,0.0,0.0,82,0.00,,---,0.00,VWS V14.01,2013-08-30 01:40:00,
2013-08-29 21:45:00,75.3,69.4,29.92,North,0,0.0,0.0,82,0.00,,---,0.00,VWS V14.01,2013-08-30 01:45:00,
2013-08-29 21:50:00,75.3,69.8,29.92,North,0,0.0,0.0,83,0.00,,---,0.00,VWS V14.01,2013-08-30 01:50:00,
2013-08-29 21:55:00,75.1,69.6,29.92,North,0,0.0,0.0,83,0.00,,---,0.00,VWS V14.01,2013-08-30 01:55:00,
2013-08-29 22:00:00,74.9,69.7,29.92,North,0,0.0,0.0,84,0.00,,---,0.00,VWS V14.01,2013-08-30 02:00:00,
2013-08-29 22:05:00,74.7,69.6,29.93,North,0,0.0,0.0,84,0.00,,---,0.00,VWS V14.01,2013-08-30 02:05:00,
2013-08-29 22:09:00,74.6,69.8,29.93,North,0,0.0,0.0,85,0.00,,---,0.00,VWS V14.01,2013-08-30 02:09:00,
2013-08-29 22:10:00,76.3,69.7,29.91,North,6,0.0,0.0,80,0.00,,---,0.00,VWS V14.01,2013-08-30 02:10:00,
2013-08-29 22:14:00,74.4,69.6,29.93,North,0,0.0,0.0,85,0.00,,---,0.00,VWS V14.01,2013-08-30 02:14:00,
2013-08-29 22:15:00,76.1,69.8,29.91,North,4,0.0,0.0,81,0.00,,---,0.00,VWS V14.01,2013-08-30 02:15:00,
2013-08-29 22:19:00,74.2,69.4,29.93,North,0,0.0,0.0,85,0.00,,---,0.00,VWS V14.01,2013-08-30 02:19:00,
2013-08-29 22:20:00,76.0,69.8,29.91,West,261,0.0,0.0,81,0.00,,---,0.00,VWS V14.01,2013-08-30 02:20:00,
2013-08-29 22:24:00,74.0,69.6,29.93,North,0,0.0,0.0,86,0.00,,---,0.00,VWS V14.01,2013-08-30 02:24:00,
2013-08-29 22:25:00,75.8,69.6,29.91,North,0,0.0,0.0,81,0.00,,---,0.00,VWS V14.01,2013-08-30 02:25:00,
2013-08-29 22:29:00,73.9,69.4,29.93,North,0,0.0,0.0,86,0.00,,---,0.00,VWS V14.01,2013-08-30 02:29:00,
2013-08-29 22:30:00,75.6,69.7,29.92,North,0,0.0,0.0,82,0.00,,---,0.00,VWS V14.01,2013-08-30 02:30:00,
2013-08-29 22:34:00,73.9,69.4,29.93,North,0,0.0,0.0,86,0.00,,---,0.00,VWS V14.01,2013-08-30 02:34:00,
2013-08-29 22:35:00,75.4,69.5,29.92,North,0,0.0,0.0,82,0.00,,---,0.00,VWS V14.01,2013-08-30 02:35:00,
2013-08-29 22:39:00,73.7,69.3,29.93,North,0,0.0,0.0,86,0.00,,---,0.00,VWS V14.01,2013-08-30 02:39:00,
2013-08-29 22:40:00,75.4,69.5,29.92,North,0,0.0,0.0,82,0.00,,---,0.00,VWS V14.01,2013-08-30 02:40:00,
2013-08-29 22:44:00,73.7,69.6,29.93,North,0,0.0,0.0,87,0.00,,---,0.00,VWS V14.01,2013-08-30 02:44:00,
2013-08-29 22:45:00,75.3,69.4,29.92,North,0,0.0,0.0,82,0.00,,---,0.00,VWS V14.01,2013-08-30 02:45:00,
2013-08-29 22:49:00,73.5,69.4,29.93,North,0,0.0,0.0,87,0.00,,---,0.00,VWS V14.01,2013-08-30 02:49:00,
2013-08-29 22:50:00,75.1,69.2,29.92,North,0,0.0,0.0,82,0.00,,---,0.00,VWS V14.01,2013-08-30 02:50:00,
2013-08-29 22:54:00,73.5,69.4,29.93,North,0,0.0,0.0,87,0.00,,---,0.00,VWS V14.01,2013-08-30 02:54:00,
2013-08-29 22:55:00,75.1,69.6,29.92,North,0,0.0,0.0,83,0.00,,---,0.00,VWS V14.01,2013-08-30 02:55:00,
2013-08-29 22:59:00,73.3,68.9,29.93,North,0,0.0,0.0,86,0.00,,---,0.00,VWS V14.01,2013-08-30 02:59:00,
2013-08-29 23:00:00,74.9,69.7,29.93,North,0,0.0,0.0,84,0.00,,---,0.00,VWS V14.01,2013-08-30 03:00:00,
2013-08-29 23:04:00,73.3,68.9,29.93,North,0,0.0,0.0,86,0.00,,---,0.00,VWS V14.01,2013-08-30 03:04:00,
2013-08-29 23:05:00,74.6,69.4,29.93,North,0,0.0,0.0,84,0.00,,---,0.00,VWS V14.01,2013-08-30 03:05:00,
2013-08-29 23:09:00,73.2,68.8,29.93,North,0,0.0,0.0,86,0.00,,---,0.00,VWS V14.01,2013-08-30 03:09:00,
2013-08-29 23:10:00,74.4,69.6,29.93,North,0,0.0,0.0,85,0.00,,---,0.00,VWS V14.01,2013-08-30 03:10:00,
2013-08-29 23:14:00,73.2,68.8,29.93,North,0,0.0,0.0,86,0.00,,---,0.00,VWS V14.01,2013-08-30 03:14:00,
2013-08-29 23:15:00,74.2,69.4,29.93,North,0,0.0,0.0,85,0.00,,---,0.00,VWS V14.01,2013-08-30 03:15:00,
2013-08-29 23:19:00,73.0,68.6,29.94,North,0,0.0,0.0,86,0.00,,---,0.00,VWS V14.01,2013-08-30 03:19:00,
2013-08-29 23:20:00,74.2,69.4,29.93,North,0,0.0,0.0,85,0.00,,---,0.00,VWS V14.01,2013-08-30 03:20:00,
2013-08-29 23:24:00,73.0,68.6,29.94,North,0,0.0,0.0,86,0.00,,---,0.00,VWS V14.01,2013-08-30 03:24:00,
2013-08-29 23:25:00,74.0,69.6,29.93,North,0,0.0,0.0,86,0.00,,---,0.00,VWS V14.01,2013-08-30 03:25:00,
2013-08-29 23:29:00,72.8,68.4,29.94,North,0,0.0,0.0,86,0.00,,---,0.00,VWS V14.01,2013-08-30 03:29:00,
2013-08-29 23:30:00,73.9,69.4,29.93,North,0,0.0,0.0,86,0.00,,---,0.00,VWS V14.01,2013-08-30 03:30:00,
2013-08-29 23:34:00,72.8,68.4,29.94,North,0,0.0,0.0,86,0.00,,---,0.00,VWS V14.01,2013-08-30 03:34:00,
2013-08-29 23:35:00,73.9,69.4,29.93,North,0,0.0,0.0,86,0.00,,---,0.00,VWS V14.01,2013-08-30 03:35:00,
2013-08-29 23:39:00,72.7,68.3,29.94,North,0,0.0,0.0,86,0.00,,---,0.00,VWS V14.01,2013-08-30 03:39:00,
2013-08-29 23:40:00,73.7,69.3,29.93,North,0,0.0,0.0,86,0.00,,---,0.00,VWS V14.01,2013-08-30 03:40:00,
2013-08-29 23:44:00,72.7,68.3,29.94,North,0,0.0,0.0,86,0.00,,---,0.00,VWS V14.01,2013-08-30 03:44:00,
2013-08-29 23:45:00,73.7,69.6,29.93,North,0,0.0,0.0,87,0.00,,---,0.00,VWS V14.01,2013-08-30 03:45:00,
2013-08-29 23:49:00,72.5,68.1,29.94,North,0,0.0,0.0,86,0.00,,---,0.00,VWS V14.01,2013-08-30 03:49:00,
2013-08-29 23:50:00,73.5,69.4,29.93,North,0,0.0,0.0,87,0.00,,---,0.00,VWS V14.01,2013-08-30 03:50:00,
2013-08-29 23:54:00,72.5,68.4,29.94,North,0,0.0,0.0,87,0.00,,---,0.00,VWS V14.01,2013-08-30 03:54:00,
2013-08-29 23:55:00,73.5,69.4,29.93,North,0,0.0,0.0,87,0.00,,---,0.00,VWS V14.01,2013-08-30 03:55:00,
2013-08-29 23:59:00,72.3,68.2,29.94,North,0,0.0,0.0,87,0.00,,---,0.00,VWS V14.01,2013-08-30 03:59:00,